Time;durP1;ratioP1;P1;durP2;ratioP2;P2;SDS_P1;SDS_P2;PMS_P1;PMS_P2;Temp;Humidity;BMP_temperature;BMP_pressure;BME280_temperature;BME280_humidity;BME280_pressure;Samples;Min_cycle;Max_cycle;Signal;HPM_P1;HPM_P2
2023/08/06 00:02:03;;;;;;;1.15;1.05;;;20.30;99.90;;;;;;5146333;27;20190;-66
2023/08/06 00:04:30;;;;;;;1.35;1.25;;;20.30;99.90;;;;;;5132631;27;20227;-66
2023/08/06 00:06:57;;;;;;;1.50;1.20;;;20.30;99.90;;;;;;5149313;27;20199;-65
2023/08/06 00:09:25;;;;;;;2.13;1.40;;;20.30;99.90;;;;;;5144008;27;20609;-65
2023/08/06 00:11:52;;;;;;;1.85;1.27;;;20.30;99.90;;;;;;5148831;27;20623;-65
2023/08/06 00:14:19;;;;;;;2.75;1.35;;;20.30;99.90;;;;;;5130924;27;20339;-65
2023/08/06 00:16:46;;;;;;;1.30;1.13;;;20.30;99.90;;;;;;5144339;27;20604;-65
2023/08/06 00:19:13;;;;;;;2.55;1.40;;;20.30;99.90;;;;;;5151082;27;20591;-66
2023/08/06 00:21:41;;;;;;;1.38;1.23;;;20.20;99.90;;;;;;5141997;27;20225;-66
2023/08/06 00:24:08;;;;;;;1.30;1.20;;;20.20;99.90;;;;;;5151375;27;20220;-66
2023/08/06 00:26:36;;;;;;;1.38;1.13;;;20.30;99.90;;;;;;5145050;27;20206;-66
2023/08/06 00:29:03;;;;;;;2.20;1.35;;;20.30;99.90;;;;;;5141426;27;20183;-66
2023/08/06 00:31:30;;;;;;;0.93;0.93;;;20.30;99.90;;;;;;5147897;27;20203;-66
2023/08/06 00:33:57;;;;;;;1.23;1.00;;;20.30;99.90;;;;;;5132408;27;20195;-66
2023/08/06 00:36:24;;;;;;;2.92;0.95;;;20.30;99.90;;;;;;5129253;27;20206;-66
2023/08/06 00:38:51;;;;;;;1.00;1.00;;;20.30;99.90;;;;;;5130449;27;20256;-66
2023/08/06 00:41:18;;;;;;;0.90;0.80;;;20.30;99.90;;;;;;5151253;27;20265;-66
2023/08/06 00:43:47;;;;;;;2.78;1.25;;;20.30;99.90;;;;;;5128211;27;20191;-66
2023/08/06 00:46:13;;;;;;;2.13;1.38;;;20.20;99.90;;;;;;5142649;27;20188;-66
2023/08/06 00:48:41;;;;;;;1.35;1.25;;;20.20;99.90;;;;;;5126042;27;20247;-66
2023/08/06 00:51:11;;;;;;;2.88;1.23;;;20.20;99.90;;;;;;5144117;27;20182;-65
2023/08/06 00:53:39;;;;;;;2.03;1.27;;;20.20;99.90;;;;;;5150846;27;20222;-66
2023/08/06 00:56:06;;;;;;;1.30;1.20;;;20.20;99.90;;;;;;5151354;27;20194;-65
2023/08/06 00:58:34;;;;;;;1.70;1.30;;;20.20;99.90;;;;;;5145126;27;21006;-65
2023/08/06 01:01:03;;;;;;;1.50;1.23;;;20.20;99.90;;;;;;5149121;27;20539;-65
2023/08/06 01:03:30;;;;;;;2.55;1.50;;;20.20;99.90;;;;;;5134919;27;20223;-65
2023/08/06 01:05:57;;;;;;;1.35;1.10;;;20.20;99.90;;;;;;5142589;27;20238;-66
2023/08/06 01:08:36;;;;;;;1.25;1.15;;;20.20;99.90;;;;;;5146952;27;20301;-65
2023/08/06 01:11:26;;;;;;;1.63;1.52;;;20.30;99.90;;;;;;5146061;27;20280;-65
2023/08/06 01:14:08;;;;;;;1.52;1.30;;;20.30;99.90;;;;;;5129321;27;20230;-66
2023/08/06 01:16:39;;;;;;;1.73;1.10;;;20.30;99.90;;;;;;5150485;27;20191;-66
2023/08/06 01:19:16;;;;;;;2.35;1.10;;;20.20;99.90;;;;;;5145062;27;20194;-66
2023/08/06 01:21:44;;;;;;;1.33;1.20;;;20.20;99.90;;;;;;5145424;27;20672;-66
2023/08/06 01:24:12;;;;;;;1.55;1.23;;;20.20;99.90;;;;;;5153805;27;20206;-65
2023/08/06 01:26:45;;;;;;;1.63;1.27;;;20.20;99.90;;;;;;5148770;27;20203;-66
2023/08/06 01:29:19;;;;;;;2.97;1.45;;;20.20;99.90;;;;;;5133455;27;20766;-66
2023/08/06 01:31:50;;;;;;;3.53;1.48;;;20.20;99.90;;;;;;5153005;27;20534;-66
2023/08/06 01:34:21;;;;;;;1.40;1.30;;;20.20;99.90;;;;;;5132174;27;20744;-66
2023/08/06 01:36:51;;;;;;;4.55;1.80;;;20.20;99.90;;;;;;5154391;27;20191;-65
2023/08/06 01:39:20;;;;;;;4.00;1.55;;;20.20;99.90;;;;;;5152358;27;20803;-66
2023/08/06 01:41:47;;;;;;;2.70;1.30;;;20.20;99.90;;;;;;5132059;27;20201;-66
2023/08/06 01:44:16;;;;;;;4.43;1.63;;;20.10;99.90;;;;;;5153899;27;20226;-66
2023/08/06 01:46:43;;;;;;;2.42;1.52;;;20.10;99.90;;;;;;5153028;27;20222;-65
2023/08/06 01:49:10;;;;;;;2.50;1.70;;;20.10;99.90;;;;;;5147051;27;20239;-65
2023/08/06 01:51:37;;;;;;;5.43;1.90;;;20.10;99.90;;;;;;5153779;27;20626;-66
2023/08/06 01:54:05;;;;;;;5.43;1.63;;;20.10;99.90;;;;;;5150404;27;20198;-66
2023/08/06 01:56:32;;;;;;;3.70;1.27;;;20.10;99.90;;;;;;5152843;27;20247;-66
2023/08/06 01:58:59;;;;;;;4.05;2.00;;;20.00;99.90;;;;;;5133957;27;20207;-66
2023/08/06 02:01:26;;;;;;;1.85;1.75;;;20.00;99.90;;;;;;5130240;27;20213;-65
2023/08/06 02:03:53;;;;;;;2.80;1.70;;;20.00;99.90;;;;;;5147982;27;20182;-65
2023/08/06 02:06:21;;;;;;;2.85;1.52;;;20.00;99.90;;;;;;5134819;27;20206;-66
2023/08/06 02:08:48;;;;;;;1.92;1.27;;;19.90;99.90;;;;;;5148564;27;20234;-65
2023/08/06 02:11:18;;;;;;;2.67;2.05;;;19.90;99.90;;;;;;5131644;27;20203;-65
2023/08/06 02:13:45;;;;;;;1.60;1.50;;;19.90;99.90;;;;;;5149656;27;20193;-66
2023/08/06 02:16:17;;;;;;;4.20;1.30;;;19.90;99.90;;;;;;5129112;27;20286;-66
2023/08/06 02:18:44;;;;;;;1.50;1.40;;;19.90;99.90;;;;;;5145289;27;20195;-65
2023/08/06 02:21:11;;;;;;;1.60;1.20;;;19.90;99.90;;;;;;5152648;27;20688;-66
2023/08/06 02:23:38;;;;;;;1.45;1.10;;;19.90;99.90;;;;;;5145892;27;20263;-65
2023/08/06 02:26:06;;;;;;;1.35;0.90;;;19.90;99.90;;;;;;5153330;27;20202;-65
2023/08/06 02:28:34;;;;;;;1.38;1.25;;;19.90;99.90;;;;;;5152538;27;20203;-66
2023/08/06 02:31:01;;;;;;;1.38;1.27;;;19.90;99.90;;;;;;5147690;27;20191;-65
2023/08/06 02:33:29;;;;;;;2.85;1.92;;;19.90;99.90;;;;;;5151650;27;20271;-66
2023/08/06 02:36:04;;;;;;;3.83;1.85;;;19.90;99.90;;;;;;5153520;27;20191;-66
2023/08/06 02:38:31;;;;;;;1.67;1.20;;;19.80;99.90;;;;;;5145819;27;20189;-66
2023/08/06 02:40:58;;;;;;;1.55;1.33;;;19.70;99.90;;;;;;5141148;27;20597;-66
2023/08/06 02:43:26;;;;;;;2.30;1.88;;;19.70;99.90;;;;;;5152825;27;20197;-66
2023/08/06 02:45:58;;;;;;;4.30;2.15;;;19.70;99.90;;;;;;5131440;27;20218;-66
2023/08/06 02:48:25;;;;;;;1.85;1.50;;;19.70;99.90;;;;;;5150910;27;20266;-66
2023/08/06 02:50:52;;;;;;;1.77;1.15;;;19.70;99.90;;;;;;5134974;27;20210;-66
2023/08/06 02:53:20;;;;;;;1.45;1.27;;;19.70;99.90;;;;;;5132951;27;20202;-66
2023/08/06 02:55:49;;;;;;;2.33;1.40;;;19.60;99.90;;;;;;5133561;27;20194;-66
2023/08/06 02:58:22;;;;;;;1.73;1.63;;;19.70;99.90;;;;;;5130828;27;20690;-66
2023/08/06 03:01:05;;;;;;;6.95;4.47;;;19.70;99.90;;;;;;5133118;27;20664;-66
2023/08/06 03:03:39;;;;;;;4.28;3.13;;;19.70;99.90;;;;;;5132828;27;20193;-66
2023/08/06 03:06:08;;;;;;;5.10;2.90;;;19.70;99.90;;;;;;5130447;27;20246;-66
2023/08/06 03:08:47;;;;;;;2.65;1.75;;;19.70;99.90;;;;;;5133167;27;20249;-66
2023/08/06 03:11:15;;;;;;;2.15;1.58;;;19.70;99.90;;;;;;5128180;27;20202;-66
2023/08/06 03:13:42;;;;;;;3.15;1.85;;;19.70;99.90;;;;;;5131323;27;20194;-66
2023/08/06 03:16:11;;;;;;;5.85;1.80;;;19.70;99.90;;;;;;5132616;27;20210;-66
2023/08/06 03:18:39;;;;;;;2.55;1.60;;;19.70;99.90;;;;;;5127138;27;20392;-67
2023/08/06 03:21:08;;;;;;;4.05;1.83;;;19.70;99.90;;;;;;5125548;27;20205;-66
2023/08/06 03:23:36;;;;;;;4.78;2.33;;;19.70;99.90;;;;;;5133293;27;20202;-66
2023/08/06 03:26:03;;;;;;;3.40;2.05;;;19.60;99.90;;;;;;5130166;27;20207;-66
2023/08/06 03:28:31;;;;;;;6.75;3.05;;;19.60;99.90;;;;;;5131665;27;20198;-66
2023/08/06 03:31:02;;;;;;;3.90;2.40;;;19.60;99.90;;;;;;5132469;27;20187;-66
2023/08/06 03:33:36;;;;;;;2.10;1.90;;;19.60;99.90;;;;;;5128715;27;20190;-66
2023/08/06 03:36:05;;;;;;;6.32;2.42;;;19.60;99.90;;;;;;5132572;27;20183;-66
2023/08/06 03:38:34;;;;;;;3.20;2.22;;;19.60;99.90;;;;;;5133369;27;20206;-66
2023/08/06 03:41:05;;;;;;;2.10;2.00;;;19.60;99.90;;;;;;5125040;27;20226;-66
2023/08/06 03:43:32;;;;;;;7.10;2.78;;;19.60;99.90;;;;;;5150960;27;20602;-66
2023/08/06 03:46:00;;;;;;;4.45;2.35;;;19.60;99.90;;;;;;5132001;27;20214;-66
2023/08/06 03:48:27;;;;;;;2.85;1.80;;;19.60;99.90;;;;;;5144449;27;20182;-66
2023/08/06 03:50:56;;;;;;;1.52;1.42;;;19.70;99.90;;;;;;5150136;27;20281;-66
2023/08/06 03:53:25;;;;;;;2.40;1.50;;;19.70;99.90;;;;;;5129538;27;20286;-66
2023/08/06 03:55:52;;;;;;;3.08;1.83;;;19.70;99.90;;;;;;5144617;27;20281;-65
2023/08/06 03:58:19;;;;;;;3.65;1.60;;;19.70;99.90;;;;;;5150102;27;20197;-65
2023/08/06 04:00:46;;;;;;;2.67;1.45;;;19.80;99.90;;;;;;5150012;27;20197;-65
2023/08/06 04:03:13;;;;;;;1.90;1.35;;;19.80;99.90;;;;;;5143962;27;20209;-65
2023/08/06 04:05:41;;;;;;;6.13;2.15;;;19.80;99.90;;;;;;5133708;27;20214;-65
2023/08/06 04:08:09;;;;;;;3.88;1.73;;;19.80;99.90;;;;;;5131719;27;20558;-65
2023/08/06 04:10:37;;;;;;;1.80;1.30;;;19.80;99.90;;;;;;5148483;27;20238;-65
2023/08/06 04:13:04;;;;;;;6.70;2.15;;;19.90;99.90;;;;;;5150971;27;20243;-64
2023/08/06 04:15:31;;;;;;;4.22;2.70;;;19.90;99.90;;;;;;5128790;27;20196;-65
2023/08/06 04:17:58;;;;;;;7.45;3.00;;;19.90;99.90;;;;;;5131381;27;20679;-64
2023/08/06 04:20:25;;;;;;;3.85;2.22;;;19.90;99.90;;;;;;5132568;27;20668;-65
2023/08/06 04:22:54;;;;;;;3.85;2.10;;;19.90;99.90;;;;;;5129627;27;20260;-65
2023/08/06 04:25:23;;;;;;;3.33;1.77;;;19.90;99.90;;;;;;5130987;27;20221;-66
2023/08/06 04:27:51;;;;;;;3.30;1.60;;;19.90;99.90;;;;;;5128190;27;20199;-66
2023/08/06 04:30:19;;;;;;;5.13;1.90;;;19.90;99.90;;;;;;5127317;27;20214;-66
2023/08/06 04:32:46;;;;;;;1.45;1.27;;;19.90;99.90;;;;;;5150431;27;20353;-66
2023/08/06 04:35:13;;;;;;;2.22;1.42;;;20.00;99.90;;;;;;5131868;27;20217;-66
2023/08/06 04:37:41;;;;;;;1.42;1.13;;;19.90;99.90;;;;;;5128684;27;20198;-66
2023/08/06 04:40:09;;;;;;;1.83;1.73;;;19.90;99.90;;;;;;5130892;27;20199;-66
2023/08/06 04:42:38;;;;;;;3.92;1.90;;;19.90;99.90;;;;;;5150066;27;20201;-66
2023/08/06 04:45:06;;;;;;;3.70;1.73;;;20.00;99.90;;;;;;5141370;27;20251;-66
2023/08/06 04:47:33;;;;;;;5.85;2.00;;;20.00;99.90;;;;;;5131578;27;20212;-66
2023/08/06 04:50:00;;;;;;;2.72;1.70;;;20.00;99.90;;;;;;5143207;27;20576;-66
2023/08/06 04:52:28;;;;;;;3.20;2.10;;;20.00;99.90;;;;;;5145784;27;20587;-66
2023/08/06 04:54:55;;;;;;;3.08;1.73;;;20.00;99.90;;;;;;5155073;27;20553;-66
2023/08/06 04:57:22;;;;;;;1.70;1.60;;;20.00;99.90;;;;;;5155218;27;20940;-66
2023/08/06 04:59:51;;;;;;;2.70;1.70;;;20.00;99.90;;;;;;5144730;27;20262;-66
2023/08/06 05:02:18;;;;;;;5.03;1.77;;;20.10;99.90;;;;;;5149275;27;20198;-66
2023/08/06 05:04:45;;;;;;;2.33;1.70;;;20.00;99.90;;;;;;5153644;27;20190;-66
2023/08/06 05:07:12;;;;;;;4.50;1.95;;;20.00;99.90;;;;;;5150008;27;20207;-66
2023/08/06 05:09:39;;;;;;;1.67;1.58;;;20.00;99.90;;;;;;5153438;27;20314;-66
2023/08/06 05:12:07;;;;;;;2.00;1.58;;;20.00;99.90;;;;;;5145358;27;20255;-66
2023/08/06 05:14:34;;;;;;;2.28;1.52;;;20.00;99.90;;;;;;5134364;27;20203;-66
2023/08/06 05:17:04;;;;;;;2.38;1.80;;;20.00;99.90;;;;;;5153151;27;20193;-66
2023/08/06 05:19:31;;;;;;;7.53;1.80;;;20.00;99.90;;;;;;5151139;27;20206;-66
2023/08/06 05:21:58;;;;;;;4.65;1.83;;;20.00;99.90;;;;;;5151208;27;20231;-65
2023/08/06 05:24:25;;;;;;;4.22;2.13;;;20.00;99.90;;;;;;5148541;27;20190;-67
2023/08/06 05:26:52;;;;;;;3.63;1.90;;;20.00;99.90;;;;;;5148474;27;20203;-65
2023/08/06 05:29:19;;;;;;;1.50;1.40;;;20.00;99.90;;;;;;5150847;27;20198;-66
2023/08/06 05:31:46;;;;;;;2.65;1.55;;;20.00;99.90;;;;;;5152682;27;20657;-66
2023/08/06 05:34:15;;;;;;;2.08;1.58;;;20.00;99.90;;;;;;5153666;27;20198;-65
2023/08/06 05:36:42;;;;;;;3.38;1.38;;;20.00;99.90;;;;;;5144705;27;20214;-65
2023/08/06 05:39:09;;;;;;;2.53;1.38;;;20.00;99.90;;;;;;5151226;27;20657;-65
2023/08/06 05:41:36;;;;;;;2.88;1.60;;;20.10;99.90;;;;;;5145793;27;20729;-66
2023/08/06 05:44:03;;;;;;;3.35;1.65;;;20.10;99.90;;;;;;5149989;27;20195;-66
2023/08/06 05:46:30;;;;;;;3.22;1.75;;;20.10;99.90;;;;;;5151419;27;20207;-66
2023/08/06 05:48:57;;;;;;;4.15;1.80;;;20.10;99.90;;;;;;5147851;27;20199;-66
2023/08/06 05:51:27;;;;;;;2.70;1.50;;;20.10;99.90;;;;;;5151216;27;20198;-66
2023/08/06 05:53:55;;;;;;;1.70;1.48;;;20.10;99.90;;;;;;5135261;27;20567;-66
2023/08/06 05:56:22;;;;;;;2.35;1.70;;;20.10;99.90;;;;;;5132580;27;20610;-66
2023/08/06 05:58:51;;;;;;;3.97;2.03;;;20.10;99.90;;;;;;5151902;27;20541;-66
2023/08/06 06:01:18;;;;;;;2.60;1.60;;;20.10;99.90;;;;;;5151218;27;20282;-66
2023/08/06 06:03:45;;;;;;;1.95;1.58;;;20.10;99.90;;;;;;5149221;27;20653;-66
2023/08/06 06:06:12;;;;;;;2.17;1.95;;;20.00;99.90;;;;;;5149294;27;20246;-66
2023/08/06 06:08:41;;;;;;;2.95;1.77;;;20.00;99.90;;;;;;5132184;27;20297;-66
2023/08/06 06:11:08;;;;;;;3.08;1.75;;;20.10;99.90;;;;;;5147429;27;20295;-66
2023/08/06 06:13:35;;;;;;;1.70;1.60;;;20.10;99.90;;;;;;5153218;27;20194;-66
2023/08/06 06:16:02;;;;;;;3.70;1.50;;;20.10;99.90;;;;;;5153179;27;20606;-65
2023/08/06 06:18:29;;;;;;;2.60;1.35;;;20.10;99.90;;;;;;5145394;27;20213;-66
2023/08/06 06:20:56;;;;;;;1.40;1.30;;;20.10;99.90;;;;;;5134456;27;20198;-66
2023/08/06 06:23:23;;;;;;;1.13;1.13;;;20.10;99.90;;;;;;5152782;27;20194;-66
2023/08/06 06:25:52;;;;;;;1.58;1.40;;;20.10;99.90;;;;;;5145994;27;20215;-66
2023/08/06 06:28:19;;;;;;;2.70;1.55;;;20.20;99.90;;;;;;5150106;27;20199;-66
2023/08/06 06:30:46;;;;;;;1.02;1.02;;;20.20;99.90;;;;;;5153681;27;20220;-66
2023/08/06 06:33:13;;;;;;;2.45;1.30;;;20.20;99.90;;;;;;5145743;27;20195;-66
2023/08/06 06:35:40;;;;;;;2.15;1.33;;;20.20;99.90;;;;;;5151650;27;20183;-66
2023/08/06 06:38:10;;;;;;;1.83;1.38;;;20.30;99.90;;;;;;5151597;27;20202;-65
2023/08/06 06:40:37;;;;;;;3.35;1.52;;;20.30;99.90;;;;;;5147492;27;20198;-65
2023/08/06 06:43:05;;;;;;;2.08;1.27;;;20.30;99.90;;;;;;5140224;27;20199;-66
2023/08/06 06:45:32;;;;;;;1.50;1.33;;;20.40;99.90;;;;;;5153254;27;20236;-66
2023/08/06 06:47:59;;;;;;;1.10;1.10;;;20.40;99.90;;;;;;5129427;27;20279;-66
2023/08/06 06:50:27;;;;;;;2.22;1.30;;;20.40;99.90;;;;;;5148446;27;20570;-66
2023/08/06 06:52:54;;;;;;;1.05;1.05;;;20.50;99.90;;;;;;5151487;27;20210;-66
2023/08/06 06:55:21;;;;;;;1.15;1.05;;;20.50;99.90;;;;;;5144850;27;20212;-66
2023/08/06 06:57:48;;;;;;;0.90;0.90;;;20.50;99.90;;;;;;5150217;27;20195;-66
2023/08/06 07:00:17;;;;;;;1.05;0.85;;;20.50;99.90;;;;;;5153071;27;20195;-66
2023/08/06 07:02:44;;;;;;;0.80;0.80;;;20.60;99.90;;;;;;5146528;27;20201;-66
2023/08/06 07:05:11;;;;;;;0.75;0.73;;;20.60;99.90;;;;;;5151556;27;20590;-66
2023/08/06 07:07:38;;;;;;;0.70;0.70;;;20.60;99.90;;;;;;5150828;27;20225;-66
2023/08/06 07:10:06;;;;;;;0.77;0.77;;;20.60;99.90;;;;;;5144607;27;20221;-66
2023/08/06 07:12:33;;;;;;;1.05;0.70;;;20.60;99.90;;;;;;5132229;27;20207;-66
2023/08/06 07:15:00;;;;;;;0.70;0.70;;;20.60;99.90;;;;;;5152177;27;20218;-66
2023/08/06 07:17:29;;;;;;;0.93;0.68;;;20.60;99.90;;;;;;5145208;27;20190;-66
2023/08/06 07:19:56;;;;;;;0.93;0.90;;;20.70;99.90;;;;;;5132338;27;20257;-66
2023/08/06 07:22:26;;;;;;;0.60;0.60;;;20.70;99.90;;;;;;5152513;27;20202;-66
2023/08/06 07:24:53;;;;;;;1.75;0.93;;;20.70;99.90;;;;;;5148151;27;20194;-66
2023/08/06 07:27:20;;;;;;;0.80;0.80;;;20.70;99.90;;;;;;5149293;27;20266;-66
2023/08/06 07:29:47;;;;;;;0.85;0.85;;;20.80;99.90;;;;;;5150388;27;20243;-66
2023/08/06 07:32:15;;;;;;;0.95;0.95;;;20.80;99.90;;;;;;5144182;27;20187;-66
2023/08/06 07:34:43;;;;;;;0.80;0.80;;;20.80;99.90;;;;;;5147623;27;20187;-66
2023/08/06 07:37:10;;;;;;;0.70;0.70;;;20.80;99.90;;;;;;5141675;27;20190;-66
2023/08/06 07:39:39;;;;;;;0.80;0.80;;;20.80;99.90;;;;;;5127629;27;20916;-66
2023/08/06 07:42:07;;;;;;;0.60;0.60;;;20.80;99.90;;;;;;5145925;27;20637;-66
2023/08/06 07:44:34;;;;;;;3.53;0.98;;;20.90;99.90;;;;;;5148547;27;20193;-66
2023/08/06 07:47:01;;;;;;;1.02;0.90;;;20.90;99.90;;;;;;5139128;27;20210;-66
2023/08/06 07:49:28;;;;;;;0.70;0.70;;;20.90;99.90;;;;;;5127746;27;20677;-66
2023/08/06 07:51:56;;;;;;;0.73;0.73;;;20.90;99.90;;;;;;5131869;27;20209;-66
2023/08/06 07:54:24;;;;;;;1.00;0.73;;;20.90;99.90;;;;;;5147368;27;20666;-66
2023/08/06 07:56:51;;;;;;;0.90;0.90;;;20.90;99.90;;;;;;5151047;27;20194;-65
2023/08/06 07:59:19;;;;;;;1.10;1.00;;;20.90;99.90;;;;;;5150142;27;20647;-65
2023/08/06 08:01:46;;;;;;;2.90;1.00;;;20.90;99.90;;;;;;5145583;27;20192;-66
2023/08/06 08:04:13;;;;;;;1.13;1.05;;;20.90;99.90;;;;;;5150798;27;20282;-65
2023/08/06 08:06:40;;;;;;;0.90;0.90;;;20.90;99.90;;;;;;5150164;27;20214;-65
2023/08/06 08:09:09;;;;;;;2.15;1.10;;;21.00;99.90;;;;;;5145941;27;20206;-65
2023/08/06 08:11:36;;;;;;;0.93;0.93;;;20.90;99.90;;;;;;5152664;27;20228;-66
2023/08/06 08:14:05;;;;;;;1.08;1.05;;;21.00;99.90;;;;;;5151695;27;20198;-65
2023/08/06 08:16:33;;;;;;;1.80;1.15;;;21.00;99.90;;;;;;5144097;27;20190;-65
2023/08/06 08:19:00;;;;;;;1.00;1.00;;;21.00;99.90;;;;;;5155448;27;20209;-65
2023/08/06 08:21:29;;;;;;;1.95;1.10;;;21.00;99.90;;;;;;5151942;27;20561;-65
2023/08/06 08:23:57;;;;;;;0.80;0.80;;;20.90;99.90;;;;;;5129448;27;20583;-66
2023/08/06 08:26:27;;;;;;;0.85;0.85;;;20.90;99.90;;;;;;5149285;27;20214;-65
2023/08/06 08:28:54;;;;;;;0.90;0.90;;;20.90;99.90;;;;;;5151161;27;20309;-66
2023/08/06 08:31:21;;;;;;;1.67;1.30;;;21.00;99.90;;;;;;5153646;27;20202;-66
2023/08/06 08:33:48;;;;;;;1.55;1.45;;;21.00;99.90;;;;;;5154499;27;20202;-66
2023/08/06 08:36:15;;;;;;;1.58;1.40;;;21.00;99.90;;;;;;5147758;27;20797;-65
2023/08/06 08:38:43;;;;;;;1.40;1.30;;;21.00;99.90;;;;;;5154674;27;20221;-67
2023/08/06 08:41:11;;;;;;;1.40;1.30;;;21.00;99.90;;;;;;5155235;27;20198;-67
2023/08/06 08:43:41;;;;;;;1.35;1.25;;;21.00;99.90;;;;;;5146239;27;20784;-67
2023/08/06 08:46:10;;;;;;;1.13;1.02;;;21.00;99.90;;;;;;5153355;27;20270;-67
2023/08/06 08:48:37;;;;;;;0.88;0.88;;;21.00;99.90;;;;;;5150602;27;20895;-66
2023/08/06 08:51:07;;;;;;;0.80;0.80;;;21.00;99.90;;;;;;5144902;27;20190;-66
2023/08/06 08:53:38;;;;;;;0.93;0.90;;;21.00;99.90;;;;;;5154909;27;20202;-66
2023/08/06 08:56:06;;;;;;;1.10;1.00;;;21.10;99.90;;;;;;5133652;27;20202;-66
2023/08/06 08:58:34;;;;;;;1.05;1.05;;;21.10;99.90;;;;;;5129458;27;20202;-66
2023/08/06 09:01:03;;;;;;;1.15;1.05;;;21.10;99.90;;;;;;5155121;27;20569;-66
2023/08/06 09:03:32;;;;;;;1.05;1.05;;;21.10;99.90;;;;;;5153155;27;20641;-66
2023/08/06 09:06:01;;;;;;;1.20;1.20;;;21.10;99.90;;;;;;5148983;27;20239;-66
2023/08/06 09:08:35;;;;;;;1.60;1.50;;;21.10;99.90;;;;;;5154712;27;20232;-66
2023/08/06 09:11:03;;;;;;;1.63;1.33;;;21.10;99.90;;;;;;5153543;27;20307;-66
2023/08/06 09:13:30;;;;;;;1.45;1.35;;;21.10;99.90;;;;;;5150538;27;20282;-65
2023/08/06 09:15:58;;;;;;;2.15;1.60;;;21.10;99.90;;;;;;5154116;27;20317;-66
2023/08/06 09:18:31;;;;;;;1.60;1.50;;;21.10;99.90;;;;;;5148920;27;20731;-66
2023/08/06 09:20:58;;;;;;;1.73;1.50;;;21.10;99.90;;;;;;5152510;27;20664;-66
2023/08/06 09:23:30;;;;;;;3.00;1.90;;;21.10;99.90;;;;;;5140271;27;20269;-66
2023/08/06 09:25:58;;;;;;;1.63;1.52;;;21.20;99.90;;;;;;5148453;27;20191;-66
2023/08/06 09:28:25;;;;;;;3.85;1.90;;;21.20;99.90;;;;;;5154833;27;20313;-66
2023/08/06 09:30:55;;;;;;;1.70;1.60;;;21.20;99.90;;;;;;5153988;27;20190;-66
2023/08/06 09:33:24;;;;;;;1.40;1.30;;;21.30;99.90;;;;;;5130401;27;20290;-66
2023/08/06 09:35:54;;;;;;;1.73;1.63;;;21.30;99.90;;;;;;5152934;27;20198;-66
2023/08/06 09:38:22;;;;;;;1.60;1.50;;;21.30;99.90;;;;;;5153763;27;20175;-66
2023/08/06 09:40:49;;;;;;;1.65;1.55;;;21.30;99.90;;;;;;5148480;27;20210;-66
2023/08/06 09:43:16;;;;;;;2.13;1.90;;;21.30;99.90;;;;;;5152978;27;20186;-66
2023/08/06 09:45:43;;;;;;;2.03;1.40;;;21.30;99.90;;;;;;5150569;27;20647;-66
2023/08/06 09:48:12;;;;;;;1.65;1.55;;;21.40;99.90;;;;;;5144218;27;20238;-66
2023/08/06 09:50:40;;;;;;;2.45;2.25;;;21.40;99.90;;;;;;5153412;27;20645;-66
2023/08/06 09:53:09;;;;;;;1.95;1.85;;;21.40;99.90;;;;;;5147439;27;20198;-66
2023/08/06 09:55:36;;;;;;;2.03;1.92;;;21.30;99.90;;;;;;5153074;27;20191;-66
2023/08/06 09:58:06;;;;;;;1.80;1.70;;;21.40;99.90;;;;;;5135457;27;20206;-66
2023/08/06 10:00:35;;;;;;;1.80;1.70;;;21.40;99.90;;;;;;5130148;27;20198;-66
2023/08/06 10:03:03;;;;;;;1.83;1.73;;;21.40;99.90;;;;;;5151599;27;20278;-66
2023/08/06 10:05:32;;;;;;;2.53;1.92;;;21.40;99.90;;;;;;5151837;27;20553;-66
2023/08/06 10:08:02;;;;;;;2.05;1.92;;;21.40;99.90;;;;;;5146262;27;20258;-66
2023/08/06 10:10:31;;;;;;;2.35;2.15;;;21.40;99.90;;;;;;5149659;27;20218;-66
2023/08/06 10:13:00;;;;;;;1.73;1.63;;;21.40;99.90;;;;;;5151545;27;20247;-66
2023/08/06 10:15:30;;;;;;;2.00;1.90;;;21.40;99.90;;;;;;5149879;27;20668;-67
2023/08/06 10:17:59;;;;;;;2.05;1.95;;;21.50;99.90;;;;;;5152239;27;20721;-66
2023/08/06 10:20:26;;;;;;;2.55;2.35;;;21.40;99.90;;;;;;5147632;27;20259;-66
2023/08/06 10:23:02;;;;;;;2.78;2.58;;;21.40;99.90;;;;;;5146841;27;20222;-66
2023/08/06 10:25:34;;;;;;;3.55;2.45;;;21.50;99.90;;;;;;5134845;27;20202;-66
2023/08/06 10:28:02;;;;;;;2.42;2.33;;;21.50;99.90;;;;;;5148280;27;20209;-66
2023/08/06 10:30:31;;;;;;;2.13;2.03;;;21.40;99.90;;;;;;5151919;27;20250;-66
2023/08/06 10:33:00;;;;;;;2.10;2.00;;;21.50;99.90;;;;;;5133118;27;20210;-67
2023/08/06 10:35:32;;;;;;;3.83;2.50;;;21.50;99.90;;;;;;5148720;27;20195;-67
2023/08/06 10:38:00;;;;;;;2.97;2.78;;;21.50;99.90;;;;;;5152942;27;20270;-66
2023/08/06 10:40:29;;;;;;;2.20;2.10;;;21.50;99.90;;;;;;5147840;27;20199;-67
2023/08/06 10:43:00;;;;;;;2.30;2.20;;;21.50;99.90;;;;;;5149454;27;20208;-67
2023/08/06 10:45:28;;;;;;;1.90;1.80;;;21.50;99.90;;;;;;5153398;27;20505;-66
2023/08/06 10:47:56;;;;;;;1.35;1.35;;;21.60;99.90;;;;;;5146251;27;20674;-67
2023/08/06 10:50:24;;;;;;;1.50;1.50;;;21.80;99.90;;;;;;5148277;27;20634;-65
2023/08/06 10:52:51;;;;;;;1.48;1.40;;;21.90;99.90;;;;;;5146976;27;20232;-66
2023/08/06 10:55:26;;;;;;;1.95;1.85;;;22.10;99.90;;;;;;5147162;27;20689;-65
2023/08/06 10:57:55;;;;;;;1.80;1.70;;;22.20;99.90;;;;;;5153162;27;20770;-65
2023/08/06 11:00:24;;;;;;;3.88;2.03;;;22.30;99.90;;;;;;5150790;27;20552;-65
2023/08/06 11:02:53;;;;;;;1.90;1.80;;;22.30;99.90;;;;;;5145701;27;20191;-65
2023/08/06 11:05:20;;;;;;;1.92;1.83;;;22.40;99.90;;;;;;5152707;27;20221;-65
2023/08/06 11:07:49;;;;;;;1.88;1.77;;;22.40;99.90;;;;;;5151683;27;20232;-66
2023/08/06 11:10:16;;;;;;;1.60;1.50;;;22.40;99.90;;;;;;5146896;27;20230;-66
2023/08/06 11:12:43;;;;;;;1.70;1.60;;;22.50;99.90;;;;;;5151609;27;20199;-66
2023/08/06 11:15:11;;;;;;;2.08;1.98;;;22.50;99.90;;;;;;5150072;27;20195;-66
2023/08/06 11:17:42;;;;;;;1.88;1.77;;;22.50;99.90;;;;;;5146196;27;20265;-66
2023/08/06 11:20:10;;;;;;;1.88;1.77;;;22.50;99.90;;;;;;5124114;27;20202;-66
2023/08/06 11:22:38;;;;;;;2.10;2.00;;;22.50;99.90;;;;;;5127749;27;20203;-66
2023/08/06 11:25:09;;;;;;;2.30;2.20;;;22.50;99.90;;;;;;5147197;27;20274;-66
2023/08/06 11:27:36;;;;;;;1.90;1.80;;;22.50;99.90;;;;;;5147507;27;20202;-65
2023/08/06 11:30:03;;;;;;;1.75;1.65;;;22.50;99.90;;;;;;5129315;27;20206;-65
2023/08/06 11:32:31;;;;;;;2.53;2.30;;;22.50;99.90;;;;;;5132456;27;20243;-66
2023/08/06 11:34:59;;;;;;;2.55;2.45;;;22.60;99.90;;;;;;5147107;27;20562;-66
2023/08/06 11:37:26;;;;;;;2.90;2.30;;;22.60;99.90;;;;;;5142857;27;21504;-66
2023/08/06 11:39:53;;;;;;;2.20;2.10;;;22.60;99.90;;;;;;5149145;27;20480;-66
2023/08/06 11:42:21;;;;;;;2.25;2.15;;;22.60;99.90;;;;;;5133058;27;20684;-67
2023/08/06 11:44:48;;;;;;;2.00;1.90;;;22.60;99.90;;;;;;5127608;27;20202;-67
2023/08/06 11:47:17;;;;;;;1.55;1.55;;;22.70;99.90;;;;;;5146575;27;20632;-66
2023/08/06 11:49:46;;;;;;;1.77;1.67;;;22.70;99.90;;;;;;5147481;27;20243;-66
2023/08/06 11:52:20;;;;;;;1.45;1.45;;;22.70;99.90;;;;;;5148247;27;20194;-66
2023/08/06 11:55:02;;;;;;;1.50;1.40;;;22.80;99.90;;;;;;5144310;27;20190;-65
2023/08/06 11:57:32;;;;;;;1.40;1.40;;;22.90;99.90;;;;;;5142621;27;20649;-66
2023/08/06 12:00:03;;;;;;;1.30;1.30;;;23.00;99.90;;;;;;5150425;27;20201;-66
2023/08/06 12:02:41;;;;;;;1.50;1.50;;;23.00;99.90;;;;;;5147390;27;20198;-64
2023/08/06 12:05:12;;;;;;;1.30;1.30;;;23.00;99.90;;;;;;5145840;27;20540;-65
2023/08/06 12:07:42;;;;;;;1.50;1.40;;;23.00;99.90;;;;;;5151856;27;20283;-66
2023/08/06 12:10:10;;;;;;;1.70;1.60;;;23.00;99.90;;;;;;5151268;27;20245;-66
2023/08/06 12:12:38;;;;;;;1.40;1.30;;;23.10;99.90;;;;;;5147632;27;20190;-66
2023/08/06 12:15:07;;;;;;;1.40;1.30;;;23.10;99.90;;;;;;5150603;27;20205;-65
2023/08/06 12:17:34;;;;;;;1.50;1.40;;;23.10;99.90;;;;;;5145662;27;20201;-66
2023/08/06 12:20:01;;;;;;;1.63;1.52;;;23.10;99.90;;;;;;5149430;27;20231;-65
2023/08/06 12:22:31;;;;;;;1.95;1.85;;;23.10;99.90;;;;;;5151051;27;20202;-65
2023/08/06 12:24:59;;;;;;;2.55;2.35;;;23.20;99.90;;;;;;5145498;27;20199;-66
2023/08/06 12:27:27;;;;;;;2.80;2.63;;;23.30;99.90;;;;;;5148099;27;20182;-66
2023/08/06 12:29:54;;;;;;;2.80;2.60;;;23.40;99.90;;;;;;5150786;27;20259;-66
2023/08/06 12:32:21;;;;;;;3.03;2.85;;;23.50;99.90;;;;;;5143019;27;20187;-66
2023/08/06 12:34:48;;;;;;;2.70;2.60;;;23.60;99.90;;;;;;5150843;27;20195;-67
2023/08/06 12:37:15;;;;;;;2.70;2.50;;;23.70;99.90;;;;;;5149746;27;20225;-67
2023/08/06 12:39:43;;;;;;;3.25;2.40;;;23.80;99.90;;;;;;5145892;27;20202;-66
2023/08/06 12:42:12;;;;;;;3.95;3.65;;;24.00;99.90;;;;;;5142851;27;20247;-67
2023/08/06 12:44:39;;;;;;;4.15;3.85;;;24.00;99.90;;;;;;5148543;27;21472;-66
2023/08/06 12:47:06;;;;;;;3.75;3.45;;;24.00;99.90;;;;;;5119059;27;20310;-66
2023/08/06 12:49:33;;;;;;;3.30;3.10;;;24.00;99.90;;;;;;5151020;27;20222;-66
2023/08/06 12:52:01;;;;;;;3.28;3.05;;;24.00;99.90;;;;;;5146558;27;20192;-67
2023/08/06 12:54:28;;;;;;;3.40;3.20;;;24.00;99.90;;;;;;5130392;27;20724;-66